Towanda, Pennsylvania
Current Conditions -  °F | °C
As of 2:53 PM on Friday 31 Oct 2014 (Local Time) from KELM Reporting Station
Overcast Overcast  
Wind Chill: 50°   Ceiling: 5500
Heat Index: 50°   Visibility: 10mi
Dew Point: 33°   Wind: 3mph
Humidity: 52%   Direction: 40°NE
Pressure: 29.89"   Gusts: NA
Location:  41.77°N, 76.44°W
Report Text: KELM 311853Z AUTO 04003KT 10SM OVC055 10/01 A2989 RMK AO2 SLP128 T01000006
Loading
Personal Weather Stations






























Interactive Weather Map
Tropical Storm Tracking
New forecast layout! Learn more

10-Day Weather Forecast

Advertisements
Track Severe Weather on mobile